createdAt,value
2023-05-21T00:00:17.882Z,18.80
2023-05-21T00:02:47.350Z,18.80
2023-05-21T00:05:17.150Z,18.90
2023-05-21T00:07:45.841Z,18.80
2023-05-21T00:10:14.113Z,18.70
2023-05-21T00:12:42.601Z,18.70
2023-05-21T00:15:11.309Z,18.80
2023-05-21T00:17:40.082Z,18.80
2023-05-21T00:20:10.265Z,18.80
2023-05-21T00:22:38.209Z,18.70
2023-05-21T00:25:07.010Z,18.70
2023-05-21T00:27:34.964Z,18.70
2023-05-21T00:30:02.936Z,18.70
2023-05-21T00:32:30.887Z,18.70
2023-05-21T00:34:59.205Z,18.70
2023-05-21T00:37:29.872Z,18.60
2023-05-21T00:39:58.460Z,18.60
2023-05-21T00:42:27.467Z,18.60
2023-05-21T00:44:55.452Z,18.50
2023-05-21T00:47:23.817Z,18.60
2023-05-21T00:49:53.408Z,18.40
2023-05-21T00:52:23.026Z,18.50
2023-05-21T00:54:52.927Z,18.40
2023-05-21T00:57:23.267Z,18.40
2023-05-21T00:59:53.469Z,18.40
2023-05-21T01:02:24.357Z,18.30
2023-05-21T01:04:55.114Z,18.30
2023-05-21T01:07:23.456Z,18.20
2023-05-21T01:09:54.230Z,18.30
2023-05-21T01:12:24.447Z,18.30
2023-05-21T01:14:53.242Z,18.20
2023-05-21T01:17:24.390Z,18.70
2023-05-21T01:19:54.731Z,18.20
2023-05-21T01:22:25.084Z,18.20
2023-05-21T01:24:55.645Z,18.20
2023-05-21T01:27:23.785Z,18.20
2023-05-21T01:29:51.852Z,18.10
2023-05-21T01:32:27.789Z,18.10
2023-05-21T01:35:01.869Z,18.00
2023-05-21T01:37:34.492Z,18.00
2023-05-21T01:40:10.047Z,18.00
2023-05-21T01:42:43.669Z,17.90
2023-05-21T01:45:12.810Z,17.90
2023-05-21T01:47:56.205Z,17.90
2023-05-21T01:50:25.718Z,17.90
2023-05-21T01:52:55.213Z,17.90
2023-05-21T01:55:25.451Z,17.80
2023-05-21T01:57:53.967Z,17.80
2023-05-21T02:00:22.690Z,17.80
2023-05-21T02:02:51.789Z,17.80
2023-05-21T02:05:19.810Z,17.70
2023-05-21T02:07:48.663Z,17.70
2023-05-21T02:10:16.920Z,17.70
2023-05-21T02:12:46.365Z,17.70
2023-05-21T02:15:18.129Z,17.60
2023-05-21T02:17:46.516Z,17.60
2023-05-21T02:20:14.865Z,17.60
2023-05-21T02:22:43.934Z,17.90
2023-05-21T02:25:13.265Z,17.60
2023-05-21T02:27:42.567Z,17.50
2023-05-21T02:30:13.586Z,17.50
2023-05-21T02:32:42.816Z,17.50
2023-05-21T02:35:12.686Z,17.50
2023-05-21T02:37:41.549Z,17.50
2023-05-21T02:40:10.858Z,17.40
2023-05-21T02:42:40.208Z,17.40
2023-05-21T02:45:09.821Z,17.40
2023-05-21T02:47:39.502Z,17.40
2023-05-21T02:50:09.237Z,17.30
2023-05-21T02:52:37.446Z,17.30
2023-05-21T02:55:06.128Z,17.30
2023-05-21T02:57:34.065Z,17.30
2023-05-21T03:00:03.333Z,17.20
2023-05-21T03:02:33.806Z,17.20
2023-05-21T03:05:03.375Z,17.20
2023-05-21T03:07:31.783Z,17.20
2023-05-21T03:09:59.809Z,17.20
2023-05-21T03:12:27.792Z,17.20
2023-05-21T03:14:56.458Z,17.20
2023-05-21T03:17:24.488Z,17.20
2023-05-21T03:19:52.721Z,17.10
2023-05-21T03:22:22.024Z,17.10
2023-05-21T03:24:50.006Z,17.60
2023-05-21T03:27:17.954Z,17.10
2023-05-21T03:29:46.021Z,17.10
2023-05-21T03:32:14.670Z,17.10
2023-05-21T03:34:42.828Z,17.20
2023-05-21T03:37:11.091Z,17.10
2023-05-21T03:39:40.485Z,17.10
2023-05-21T03:42:08.445Z,17.30
2023-05-21T03:44:36.467Z,17.00
2023-05-21T03:47:04.512Z,17.00
2023-05-21T03:49:35.806Z,17.00
2023-05-21T03:52:03.976Z,17.00
2023-05-21T03:54:32.067Z,17.00
2023-05-21T03:57:01.548Z,16.90
2023-05-21T03:59:29.569Z,17.00
2023-05-21T04:01:57.553Z,17.00
2023-05-21T04:04:25.640Z,17.00
2023-05-21T04:06:54.355Z,17.00
2023-05-21T04:09:22.588Z,17.00
2023-05-21T04:11:50.586Z,17.10
2023-05-21T04:14:19.920Z,17.10
2023-05-21T04:16:49.162Z,17.10
2023-05-21T04:19:17.247Z,17.10
2023-05-21T04:21:45.952Z,17.00
2023-05-21T04:24:13.931Z,17.10
2023-05-21T04:26:42.220Z,17.10
2023-05-21T04:29:10.321Z,17.10
2023-05-21T04:31:39.700Z,17.10
2023-05-21T04:34:07.997Z,17.20
2023-05-21T04:36:36.236Z,17.20
2023-05-21T04:39:05.613Z,17.30
2023-05-21T04:41:33.713Z,17.30
2023-05-21T04:44:01.723Z,17.40
2023-05-21T04:46:30.992Z,17.50
2023-05-21T04:49:03.046Z,17.40
2023-05-21T04:51:31.444Z,17.50
2023-05-21T04:53:59.677Z,17.60
2023-05-21T04:56:27.779Z,17.60
2023-05-21T04:58:55.985Z,17.70
2023-05-21T05:01:25.549Z,17.80
2023-05-21T05:03:53.694Z,17.90
2023-05-21T05:06:25.822Z,17.90
2023-05-21T05:08:54.106Z,18.00
2023-05-21T05:11:22.490Z,18.00
2023-05-21T05:13:50.555Z,18.10
2023-05-21T05:16:25.200Z,18.10
2023-05-21T05:18:53.685Z,18.20
2023-05-21T05:21:24.213Z,18.30
2023-05-21T05:23:52.209Z,18.30
2023-05-21T05:26:20.244Z,18.40
2023-05-21T05:28:48.280Z,18.40
2023-05-21T05:31:16.346Z,18.40
2023-05-21T05:33:44.331Z,18.50
2023-05-21T05:36:12.313Z,18.60
2023-05-21T05:38:41.696Z,18.90
2023-05-21T05:41:09.727Z,18.80
2023-05-21T05:43:37.648Z,19.00
2023-05-21T05:46:05.725Z,19.00
2023-05-21T05:48:33.758Z,19.20
2023-05-21T05:51:02.084Z,19.30
2023-05-21T05:53:30.112Z,19.60
2023-05-21T05:55:59.869Z,19.70
2023-05-21T05:58:28.012Z,19.80
2023-05-21T06:00:55.974Z,19.90
2023-05-21T06:03:24.014Z,20.00
2023-05-21T06:05:52.270Z,20.20
2023-05-21T06:08:20.741Z,20.50
2023-05-21T06:10:48.774Z,20.70
2023-05-21T06:13:18.194Z,21.00
2023-05-21T06:15:46.359Z,21.20
2023-05-21T06:18:14.337Z,21.10
2023-05-21T06:20:42.370Z,21.50
2023-05-21T06:23:10.376Z,22.10
2023-05-21T06:25:38.631Z,22.40
2023-05-21T06:28:09.360Z,22.60
2023-05-21T06:30:41.769Z,23.00
2023-05-21T06:33:10.013Z,23.50
2023-05-21T06:35:39.886Z,24.20
2023-05-21T06:38:07.980Z,24.70
2023-05-21T06:40:36.383Z,25.20
2023-05-21T06:43:05.237Z,25.00
2023-05-21T06:45:33.345Z,25.00
2023-05-21T06:48:02.770Z,24.60
2023-05-21T06:50:30.801Z,24.60
2023-05-21T06:52:58.725Z,24.80
2023-05-21T06:55:26.682Z,24.80
2023-05-21T06:57:54.654Z,24.90
2023-05-21T07:00:22.610Z,24.80
2023-05-21T07:02:50.754Z,24.70
2023-05-21T07:05:20.400Z,24.80
2023-05-21T07:07:49.316Z,24.90
2023-05-21T07:10:17.443Z,24.80
2023-05-21T07:12:45.442Z,24.50
2023-05-21T07:15:13.802Z,24.50
2023-05-21T07:17:41.796Z,24.60
2023-05-21T07:20:11.519Z,24.80
2023-05-21T07:22:41.288Z,25.20
2023-05-21T07:25:10.245Z,25.60
2023-05-21T07:27:41.153Z,25.90
2023-05-21T07:30:12.098Z,26.30
2023-05-21T07:32:40.225Z,26.60
2023-05-21T07:35:08.714Z,26.80
2023-05-21T07:37:36.693Z,26.80
2023-05-21T07:40:07.867Z,27.10
2023-05-21T07:42:35.824Z,27.20
2023-05-21T07:45:03.735Z,27.30
2023-05-21T07:47:31.861Z,27.20
2023-05-21T07:49:59.897Z,27.00
2023-05-21T07:52:27.846Z,27.30
2023-05-21T07:54:56.303Z,27.50
2023-05-21T07:57:25.619Z,27.60
2023-05-21T07:59:53.542Z,28.20
2023-05-21T08:02:21.847Z,28.40
2023-05-21T08:04:49.881Z,28.60
2023-05-21T08:07:19.955Z,29.40
2023-05-21T08:09:47.855Z,29.80
2023-05-21T08:12:16.183Z,29.70
2023-05-21T08:14:46.074Z,29.30
2023-05-21T08:17:13.980Z,28.50
2023-05-21T08:19:42.240Z,28.20
2023-05-21T08:22:10.264Z,28.10
2023-05-21T08:24:38.223Z,28.00
2023-05-21T08:27:07.734Z,27.50
2023-05-21T08:29:35.674Z,27.50
2023-05-21T08:32:05.566Z,27.20
2023-05-21T08:34:33.520Z,27.30
2023-05-21T08:37:01.430Z,27.40
2023-05-21T08:39:29.591Z,27.60
2023-05-21T08:42:10.656Z,27.50
2023-05-21T08:44:44.322Z,27.50
2023-05-21T08:47:17.688Z,27.60
2023-05-21T08:49:48.129Z,27.60
2023-05-21T08:52:16.565Z,27.20
2023-05-21T08:54:46.439Z,26.90
2023-05-21T08:57:16.123Z,26.80
2023-05-21T08:59:45.111Z,27.10
2023-05-21T09:02:15.421Z,27.20
2023-05-21T09:04:48.440Z,27.40
2023-05-21T09:07:17.041Z,27.60
2023-05-21T09:09:50.214Z,27.60
2023-05-21T09:12:18.506Z,27.90
2023-05-21T09:14:48.729Z,28.30
2023-05-21T09:17:20.344Z,28.70
2023-05-21T09:20:13.549Z,28.90
2023-05-21T09:22:43.398Z,29.60
2023-05-21T09:25:12.477Z,29.10
2023-05-21T09:27:41.145Z,28.70
2023-05-21T09:30:12.944Z,28.40
2023-05-21T09:32:43.080Z,28.30
2023-05-21T09:35:12.925Z,28.20
2023-05-21T09:37:43.792Z,28.60
2023-05-21T09:40:14.274Z,28.60
2023-05-21T09:42:42.888Z,28.80
2023-05-21T09:45:12.216Z,28.70
2023-05-21T09:47:44.704Z,28.30
2023-05-21T09:50:13.808Z,28.00
2023-05-21T09:52:42.348Z,27.80
2023-05-21T09:55:13.415Z,27.70
2023-05-21T09:57:45.481Z,27.50
2023-05-21T10:00:20.363Z,27.70
2023-05-21T10:02:51.643Z,27.60
2023-05-21T10:05:20.108Z,27.60
2023-05-21T10:07:51.839Z,27.40
2023-05-21T10:10:22.005Z,27.30
2023-05-21T10:12:55.364Z,27.10
2023-05-21T10:15:25.441Z,27.20
2023-05-21T10:17:57.464Z,27.10
2023-05-21T10:20:26.168Z,27.40
2023-05-21T10:22:56.946Z,27.40
2023-05-21T10:25:26.726Z,27.50
2023-05-21T10:27:56.497Z,27.40
2023-05-21T10:30:25.765Z,27.30
2023-05-21T10:32:57.951Z,27.50
2023-05-21T10:35:27.388Z,27.60
2023-05-21T10:37:58.161Z,27.70
2023-05-21T10:40:26.106Z,27.90
2023-05-21T10:43:14.520Z,28.10
2023-05-21T10:45:59.867Z,28.20
2023-05-21T10:48:48.589Z,28.30
2023-05-21T10:51:23.252Z,28.50
2023-05-21T10:54:14.118Z,28.50
2023-05-21T10:56:47.187Z,28.40
2023-05-21T10:59:28.299Z,28.40
2023-05-21T11:01:57.201Z,28.60
2023-05-21T11:04:28.257Z,28.80
2023-05-21T11:06:57.748Z,28.90
2023-05-21T11:09:25.892Z,29.00
2023-05-21T11:11:54.923Z,29.00
2023-05-21T11:14:56.864Z,29.10
2023-05-21T11:17:39.098Z,28.90
2023-05-21T11:20:13.491Z,28.90
2023-05-21T11:22:41.511Z,29.20
2023-05-21T11:25:09.970Z,29.20
2023-05-21T11:27:38.882Z,29.00
2023-05-21T11:30:08.755Z,28.70
2023-05-21T11:32:40.721Z,28.20
2023-05-21T11:35:14.920Z,27.90
2023-05-21T11:37:50.862Z,27.90
2023-05-21T11:40:27.384Z,28.00
2023-05-21T11:42:56.678Z,28.10
2023-05-21T11:45:30.785Z,28.20
2023-05-21T11:48:00.406Z,28.30
2023-05-21T11:50:34.244Z,28.30
2023-05-21T11:53:03.696Z,28.40
2023-05-21T11:55:33.153Z,28.60
2023-05-21T11:58:01.909Z,28.70
2023-05-21T12:00:29.827Z,28.60
2023-05-21T12:02:58.903Z,28.50
2023-05-21T12:05:27.589Z,28.30
2023-05-21T12:07:58.476Z,28.10
2023-05-21T12:10:26.431Z,27.90
2023-05-21T12:12:57.226Z,27.80
2023-05-21T12:15:27.058Z,27.40
2023-05-21T12:17:56.984Z,27.20
2023-05-21T12:20:28.304Z,26.90
2023-05-21T12:22:58.955Z,26.90
2023-05-21T12:25:27.618Z,26.80
2023-05-21T12:27:58.085Z,26.70
2023-05-21T12:30:27.887Z,26.60
2023-05-21T12:33:00.613Z,26.60
2023-05-21T12:35:28.740Z,26.60
2023-05-21T12:37:58.239Z,26.40
2023-05-21T12:40:37.286Z,26.40
2023-05-21T12:43:05.804Z,26.30
2023-05-21T12:45:34.802Z,26.20
2023-05-21T12:48:06.133Z,26.20
2023-05-21T12:50:35.896Z,26.20
2023-05-21T12:53:05.813Z,26.30
2023-05-21T12:55:33.939Z,26.40
2023-05-21T12:58:05.361Z,26.50
2023-05-21T13:00:34.272Z,26.70
2023-05-21T13:03:04.661Z,26.80
2023-05-21T13:05:32.987Z,26.90
2023-05-21T13:08:01.092Z,26.90
2023-05-21T13:10:30.643Z,27.00
2023-05-21T13:12:58.681Z,27.00
2023-05-21T13:15:26.730Z,26.90
2023-05-21T13:17:56.833Z,26.80
2023-05-21T13:20:27.623Z,26.60
2023-05-21T13:22:55.893Z,26.40
2023-05-21T13:25:28.472Z,26.40
2023-05-21T13:27:58.999Z,26.50
2023-05-21T13:30:27.120Z,26.60
2023-05-21T13:32:55.647Z,26.60
2023-05-21T13:35:23.854Z,26.70
2023-05-21T13:37:52.161Z,26.90
2023-05-21T13:40:23.851Z,26.90
2023-05-21T13:42:52.356Z,27.00
2023-05-21T13:45:24.331Z,27.00
2023-05-21T13:47:52.479Z,26.90
2023-05-21T13:50:20.585Z,26.80
2023-05-21T13:52:48.593Z,26.80
2023-05-21T13:55:16.875Z,26.80
2023-05-21T13:57:45.789Z,26.80
2023-05-21T14:00:15.991Z,26.90
2023-05-21T14:02:45.899Z,26.90
2023-05-21T14:05:14.610Z,26.80
2023-05-21T14:07:43.061Z,26.70
2023-05-21T14:10:11.798Z,26.90
2023-05-21T14:12:40.720Z,26.90
2023-05-21T14:15:09.624Z,26.90
2023-05-21T14:17:40.209Z,26.80
2023-05-21T14:20:11.126Z,26.90
2023-05-21T14:22:39.810Z,26.80
2023-05-21T14:25:09.823Z,26.80
2023-05-21T14:27:38.826Z,26.70
2023-05-21T14:30:08.019Z,26.70
2023-05-21T14:32:36.324Z,26.70
2023-05-21T14:35:05.516Z,26.70
2023-05-21T14:37:34.855Z,26.70
2023-05-21T14:40:03.414Z,26.70
2023-05-21T14:42:32.106Z,26.70
2023-05-21T14:45:07.420Z,26.80
2023-05-21T14:47:46.038Z,26.90
2023-05-21T14:50:14.121Z,26.80
2023-05-21T14:52:43.708Z,26.80
2023-05-21T14:55:13.820Z,26.80
2023-05-21T14:57:41.818Z,26.80
2023-05-21T15:00:11.611Z,26.80
2023-05-21T15:02:40.547Z,26.80
2023-05-21T15:05:09.139Z,26.70
2023-05-21T15:07:37.130Z,26.80
2023-05-21T15:10:07.841Z,26.80
2023-05-21T15:12:35.903Z,26.80
2023-05-21T15:15:04.124Z,26.80
2023-05-21T15:17:33.157Z,26.70
2023-05-21T15:20:04.565Z,26.80
2023-05-21T15:22:32.646Z,26.80
2023-05-21T15:25:01.433Z,26.80
2023-05-21T15:27:30.980Z,26.80
2023-05-21T15:29:59.053Z,26.80
2023-05-21T15:32:27.372Z,26.80
2023-05-21T15:34:55.617Z,26.70
2023-05-21T15:37:24.123Z,26.60
2023-05-21T15:39:53.429Z,26.60
2023-05-21T15:42:21.549Z,26.60
2023-05-21T15:44:51.669Z,26.60
2023-05-21T15:47:19.833Z,26.60
2023-05-21T15:49:47.903Z,26.60
2023-05-21T15:52:15.913Z,26.60
2023-05-21T15:54:43.841Z,26.40
2023-05-21T15:57:11.897Z,26.40
2023-05-21T15:59:39.873Z,26.50
2023-05-21T16:02:09.374Z,26.40
2023-05-21T16:04:37.770Z,26.40
2023-05-21T16:07:06.302Z,26.50
2023-05-21T16:09:35.437Z,26.40
2023-05-21T16:12:03.503Z,26.40
2023-05-21T16:14:31.599Z,26.40
2023-05-21T16:16:59.699Z,26.40
2023-05-21T16:19:29.234Z,26.40
2023-05-21T16:21:57.345Z,26.40
2023-05-21T16:24:25.438Z,26.40
2023-05-21T16:26:53.454Z,26.50
2023-05-21T16:29:22.055Z,26.50
2023-05-21T16:31:50.649Z,26.50
2023-05-21T16:34:18.721Z,26.50
2023-05-21T16:36:48.046Z,26.50
2023-05-21T16:39:16.448Z,26.40
2023-05-21T16:41:44.910Z,26.40
2023-05-21T16:44:12.857Z,26.40
2023-05-21T16:46:41.033Z,26.30
2023-05-21T16:49:09.084Z,26.20
2023-05-21T16:51:42.569Z,26.10
2023-05-21T16:54:12.077Z,26.10
2023-05-21T16:56:40.091Z,26.10
2023-05-21T16:59:08.058Z,26.00
2023-05-21T17:01:36.137Z,25.90
2023-05-21T17:04:04.386Z,25.80
2023-05-21T17:06:33.868Z,25.70
2023-05-21T17:09:02.435Z,25.70
2023-05-21T17:11:35.063Z,25.60
2023-05-21T17:14:03.000Z,25.60
2023-05-21T17:16:31.313Z,25.50
2023-05-21T17:18:59.475Z,25.50
2023-05-21T17:21:27.847Z,25.40
2023-05-21T17:23:56.357Z,25.40
2023-05-21T17:26:24.450Z,25.30
2023-05-21T17:28:54.155Z,25.30
2023-05-21T17:31:22.989Z,25.20
2023-05-21T17:33:50.942Z,25.20
2023-05-21T17:36:18.944Z,25.10
2023-05-21T17:38:46.884Z,25.00
2023-05-21T17:41:16.460Z,25.00
2023-05-21T17:43:44.428Z,25.00
2023-05-21T17:46:18.347Z,25.00
2023-05-21T17:48:58.969Z,24.90
2023-05-21T17:51:34.085Z,24.80
2023-05-21T17:54:26.334Z,24.80
2023-05-21T17:57:02.997Z,24.70
2023-05-21T17:59:35.074Z,24.80
2023-05-21T18:02:07.784Z,24.70
2023-05-21T18:04:43.244Z,24.60
2023-05-21T18:07:20.932Z,24.60
2023-05-21T18:10:25.588Z,24.50
2023-05-21T18:16:12.067Z,24.40
2023-05-21T18:19:18.525Z,24.40
2023-05-21T18:21:53.526Z,24.30
2023-05-21T18:24:38.536Z,24.20
2023-05-21T18:27:23.470Z,24.20
2023-05-21T18:30:28.134Z,24.20
2023-05-21T18:33:11.790Z,24.10
2023-05-21T18:38:56.070Z,23.90
2023-05-21T18:41:51.597Z,23.90
2023-05-21T18:47:35.339Z,23.70
2023-05-21T18:50:03.615Z,23.60
2023-05-21T18:52:33.582Z,23.50
2023-05-21T18:55:02.082Z,23.40
2023-05-21T18:57:31.368Z,23.40
2023-05-21T19:00:00.332Z,23.40
2023-05-21T19:02:29.864Z,23.30
2023-05-21T19:04:58.599Z,23.30
2023-05-21T19:07:32.949Z,23.20
2023-05-21T19:10:03.352Z,23.10
2023-05-21T19:12:32.821Z,23.10
2023-05-21T19:15:01.778Z,23.00
2023-05-21T19:17:35.097Z,22.90
2023-05-21T19:20:05.369Z,22.90
2023-05-21T19:22:33.827Z,23.00
2023-05-21T19:25:04.008Z,22.90
2023-05-21T19:27:32.178Z,22.90
2023-05-21T19:30:00.366Z,22.90
2023-05-21T19:32:28.651Z,22.80
2023-05-21T19:34:57.770Z,22.80
2023-05-21T19:37:28.993Z,22.80
2023-05-21T19:39:57.808Z,22.70
2023-05-21T19:42:38.296Z,22.80
2023-05-21T19:45:13.362Z,22.70
2023-05-21T19:47:41.869Z,22.60
2023-05-21T19:50:11.435Z,22.50
2023-05-21T19:52:40.864Z,22.40
2023-05-21T19:55:10.331Z,22.40
2023-05-21T19:57:40.060Z,22.30
2023-05-21T20:00:10.364Z,22.30
2023-05-21T20:02:38.537Z,22.20
2023-05-21T20:05:07.515Z,22.20
2023-05-21T20:07:35.949Z,22.10
2023-05-21T20:10:04.101Z,22.10
2023-05-21T20:12:32.250Z,22.10
2023-05-21T20:15:01.924Z,22.00
2023-05-21T20:17:43.533Z,22.00
2023-05-21T20:20:13.019Z,21.90
2023-05-21T20:22:41.060Z,21.80
2023-05-21T20:25:10.698Z,21.80
2023-05-21T20:27:39.800Z,21.70
2023-05-21T20:30:10.620Z,21.70
2023-05-21T20:32:38.737Z,21.60
2023-05-21T20:35:10.193Z,21.60
2023-05-21T20:37:38.600Z,21.60
2023-05-21T20:40:07.819Z,21.60
2023-05-21T20:42:36.544Z,21.60
2023-05-21T20:45:05.492Z,21.60
2023-05-21T20:47:35.011Z,21.60
2023-05-21T20:50:04.015Z,21.50
2023-05-21T20:52:32.367Z,21.50
2023-05-21T20:55:00.579Z,21.50
2023-05-21T20:57:29.748Z,21.40
2023-05-21T20:59:57.838Z,21.40
2023-05-21T21:02:26.973Z,21.30
2023-05-21T21:04:58.038Z,21.20
2023-05-21T21:07:26.125Z,21.30
2023-05-21T21:09:54.190Z,21.30
2023-05-21T21:12:26.583Z,21.20
2023-05-21T21:14:55.472Z,21.10
2023-05-21T21:17:32.180Z,21.10
2023-05-21T21:20:01.640Z,21.10
2023-05-21T21:22:30.006Z,21.00
2023-05-21T21:24:58.189Z,21.00
2023-05-21T21:27:26.512Z,21.00
2023-05-21T21:29:54.668Z,20.80
2023-05-21T21:32:22.935Z,20.90
2023-05-21T21:34:51.096Z,20.80
2023-05-21T21:37:20.730Z,20.70
2023-05-21T21:39:48.934Z,20.70
2023-05-21T21:42:17.146Z,20.70
2023-05-21T21:44:45.261Z,20.60
2023-05-21T21:47:13.399Z,20.60
2023-05-21T21:49:41.587Z,20.60
2023-05-21T21:52:10.877Z,20.40
2023-05-21T21:54:40.659Z,20.40
2023-05-21T21:57:08.752Z,20.40
2023-05-21T21:59:40.459Z,20.40
2023-05-21T22:02:08.594Z,20.30
2023-05-21T22:04:36.749Z,20.30
2023-05-21T22:07:04.842Z,20.20
2023-05-21T22:09:33.084Z,20.20
2023-05-21T22:12:07.677Z,20.10
2023-05-21T22:14:35.903Z,20.10
2023-05-21T22:17:04.143Z,20.10
2023-05-21T22:19:32.925Z,20.00
2023-05-21T22:22:02.116Z,20.00
2023-05-21T22:24:32.902Z,19.90
2023-05-21T22:27:02.869Z,20.00
2023-05-21T22:29:31.135Z,19.90
2023-05-21T22:31:59.184Z,19.80
2023-05-21T22:34:27.165Z,19.80
2023-05-21T22:36:55.282Z,19.80
2023-05-21T22:39:23.300Z,19.80
2023-05-21T22:41:51.515Z,19.70
2023-05-21T22:44:20.927Z,19.70
2023-05-21T22:46:49.503Z,19.70
2023-05-21T22:49:17.580Z,19.60
2023-05-21T22:51:46.408Z,19.60
2023-05-21T22:54:14.575Z,19.60
2023-05-21T22:56:43.307Z,19.50
2023-05-21T22:59:11.449Z,19.50
2023-05-21T23:01:41.058Z,19.40
2023-05-21T23:04:16.361Z,19.40
2023-05-21T23:06:44.593Z,19.30
2023-05-21T23:09:13.053Z,19.30
2023-05-21T23:11:41.324Z,19.20
2023-05-21T23:14:09.346Z,19.10
2023-05-21T23:16:37.359Z,19.10
2023-05-21T23:19:06.837Z,19.10
2023-05-21T23:21:35.008Z,19.10
2023-05-21T23:24:03.308Z,19.10
2023-05-21T23:26:31.343Z,19.20
2023-05-21T23:29:03.215Z,19.20
2023-05-21T23:31:31.603Z,19.00
2023-05-21T23:34:00.252Z,19.00
2023-05-21T23:36:29.718Z,19.10
2023-05-21T23:38:57.786Z,19.00
2023-05-21T23:41:27.687Z,18.90
2023-05-21T23:43:55.831Z,18.90
2023-05-21T23:46:23.857Z,18.90
2023-05-21T23:48:51.928Z,18.80
2023-05-21T23:51:19.995Z,18.80
2023-05-21T23:53:49.432Z,18.70
2023-05-21T23:56:17.506Z,18.80
2023-05-21T23:58:45.535Z,18.70
